Sea Voyager — V7QU2 — position and weather

sailwx.info

Track history (hours):
 
Tides and Currents Weather Stations Pressure Air Temp Water Temp Dewpoint Dewpoint Depression Visibility Wind Speed Wind Dir Waves Ship Positions

Sea Voyager

Last reported at 2017-Oct-17 16:26 UTC. Time now 2017-Oct-22 15:51 UTC.
Position N 01°14' E 103°58'.

Length 243 m; draft 8.8 m.

Type: Ship (hazmat cat A). MMSI: 538003439.

Date/timePositionNaut miles runAvg speedWind from/ knotsBaromVisibWave heightAir tempDewpointWater temp
2017-Oct-17 16:26N 01°14' E 103°58'612.5
2017-Oct-17 15:57N 01°11' E 103°52'511.7
2017-Oct-17 15:30N 01°09' E 103°47'611.6
2017-Oct-17 14:58N 01°05' E 103°43'511.1
2017-Oct-17 14:30N 01°03' E 103°38'711.5
2017-Oct-17 13:55N 01°07' E 103°33'511.7
2017-Oct-17 13:30N 01°09' E 103°28'  
2017-Oct-14 20:15N 01°11' E 103°37'1 1.9
2017-Oct-14 19:55N 01°11' E 103°38'1 1.7
2017-Oct-14 19:29N 01°11' E 103°38'20 2.3
2017-Oct-14 11:04N 01°17' E 103°20'310.4
2017-Oct-14 10:46N 01°15' E 103°22'310.1
2017-Oct-14 10:29N 01°14' E 103°25'510.7
2017-Oct-14 10:00N 01°12' E 103°30'4 8.3
2017-Oct-14 09:30N 01°12' E 103°34'4 8.9
2017-Oct-14 09:00N 01°11' E 103°38'4 8.3
2017-Oct-14 08:30N 01°09' E 103°42'5 9.0
2017-Oct-14 08:00N 01°09' E 103°46'611.9
2017-Oct-14 07:30N 01°12' E 103°52'611.7
2017-Oct-14 07:00N 01°14' E 103°57'611.6
2017-Oct-14 06:30N 01°16' E 104°03'  
2017-Oct-08 08:49N 01°15' E 104°04'1 2.5
2017-Oct-08 08:30N 01°15' E 104°04'1 2.6
2017-Oct-08 07:59N 01°15' E 104°02'710.7
2017-Oct-08 07:20N 01°15' E 103°55'0 0.0
2017-Oct-08 06:56N 01°15' E 103°55'0 0.1
2017-Oct-08 06:22N 01°15' E 103°55'0 0.0
2017-Oct-08 05:59N 01°15' E 103°55'0 0.0
2017-Oct-08 05:23N 01°15' E 103°55'0 0.0
2017-Oct-08 04:54N 01°15' E 103°55'0 0.0
2017-Oct-08 03:44N 01°15' E 103°55'0 0.1
2017-Oct-08 02:28N 01°15' E 103°55'0 0.1
2017-Oct-08 01:57N 01°15' E 103°55'0 0.0
2017-Oct-08 01:16N 01°15' E 103°55'0 0.0
2017-Oct-08 00:56N 01°15' E 103°55'2 4.7
2017-Oct-08 00:30N 01°14' E 103°57'2 4.3
2017-Oct-08 00:00N 01°15' E 103°55'0 0.4
2017-Oct-07 23:27N 01°15' E 103°55'0 0.4
2017-Oct-07 23:00N 01°15' E 103°55'0 0.1
2017-Oct-07 22:30N 01°15' E 103°55'0 0.1
2017-Oct-07 21:57N 01°15' E 103°55'0 0.0
2017-Oct-07 21:30N 01°15' E 103°55'0 0.1
2017-Oct-07 21:00N 01°15' E 103°55'0 0.2
2017-Oct-07 20:30N 01°15' E 103°55'0 0.0
2017-Oct-07 19:57N 01°15' E 103°55'0 0.0
2017-Oct-07 19:30N 01°15' E 103°55'0 0.0
2017-Oct-07 18:57N 01°15' E 103°55'0 0.1
2017-Oct-07 18:24N 01°15' E 103°55'0 0.1
2017-Oct-07 17:57N 01°15' E 103°55'0 0.1
2017-Oct-07 17:28N 01°15' E 103°55'0 0.1
2017-Oct-07 16:54N 01°15' E 103°55'0 0.4
2017-Oct-07 16:28N 01°15' E 103°55'  
Track history (hours):
 
Tides and Currents Weather Stations Pressure Air Temp Water Temp Dewpoint Dewpoint Depression Visibility Wind Speed Wind Dir Waves Ship Positions

Sea Voyager

Last reported at 2017-Oct-17 16:26 UTC. Time now 2017-Oct-22 15:51 UTC.
Position N 01°14' E 103°58'.

Length 243 m; draft 8.8 m.

Type: Ship (hazmat cat A). MMSI: 538003439.

Date/timePositionNaut miles runAvg speedWind from/ knotsBaromVisibWave heightAir tempDewpointWater temp
2017-Oct-17 16:26N 01°14' E 103°58'612.5
2017-Oct-17 15:57N 01°11' E 103°52'511.7
2017-Oct-17 15:30N 01°09' E 103°47'611.6
2017-Oct-17 14:58N 01°05' E 103°43'511.1
2017-Oct-17 14:30N 01°03' E 103°38'711.5
2017-Oct-17 13:55N 01°07' E 103°33'511.7
2017-Oct-17 13:30N 01°09' E 103°28'  
2017-Oct-14 20:15N 01°11' E 103°37'1 1.9
2017-Oct-14 19:55N 01°11' E 103°38'1 1.7
2017-Oct-14 19:29N 01°11' E 103°38'20 2.3
2017-Oct-14 11:04N 01°17' E 103°20'310.4
2017-Oct-14 10:46N 01°15' E 103°22'310.1
2017-Oct-14 10:29N 01°14' E 103°25'510.7
2017-Oct-14 10:00N 01°12' E 103°30'4 8.3
2017-Oct-14 09:30N 01°12' E 103°34'4 8.9
2017-Oct-14 09:00N 01°11' E 103°38'4 8.3
2017-Oct-14 08:30N 01°09' E 103°42'5 9.0
2017-Oct-14 08:00N 01°09' E 103°46'611.9
2017-Oct-14 07:30N 01°12' E 103°52'611.7
2017-Oct-14 07:00N 01°14' E 103°57'611.6
2017-Oct-14 06:30N 01°16' E 104°03'  
2017-Oct-08 08:49N 01°15' E 104°04'1 2.5
2017-Oct-08 08:30N 01°15' E 104°04'1 2.6
2017-Oct-08 07:59N 01°15' E 104°02'710.7
2017-Oct-08 07:20N 01°15' E 103°55'0 0.0
2017-Oct-08 06:56N 01°15' E 103°55'0 0.1
2017-Oct-08 06:22N 01°15' E 103°55'0 0.0
2017-Oct-08 05:59N 01°15' E 103°55'0 0.0
2017-Oct-08 05:23N 01°15' E 103°55'0 0.0
2017-Oct-08 04:54N 01°15' E 103°55'0 0.0
2017-Oct-08 03:44N 01°15' E 103°55'0 0.1
2017-Oct-08 02:28N 01°15' E 103°55'0 0.1
2017-Oct-08 01:57N 01°15' E 103°55'0 0.0
2017-Oct-08 01:16N 01°15' E 103°55'0 0.0
2017-Oct-08 00:56N 01°15' E 103°55'2 4.7
2017-Oct-08 00:30N 01°14' E 103°57'2 4.3
2017-Oct-08 00:00N 01°15' E 103°55'0 0.4
2017-Oct-07 23:27N 01°15' E 103°55'0 0.4
2017-Oct-07 23:00N 01°15' E 103°55'0 0.1
2017-Oct-07 22:30N 01°15' E 103°55'0 0.1
2017-Oct-07 21:57N 01°15' E 103°55'0 0.0
2017-Oct-07 21:30N 01°15' E 103°55'0 0.1
2017-Oct-07 21:00N 01°15' E 103°55'0 0.2
2017-Oct-07 20:30N 01°15' E 103°55'0 0.0
2017-Oct-07 19:57N 01°15' E 103°55'0 0.0
2017-Oct-07 19:30N 01°15' E 103°55'0 0.0
2017-Oct-07 18:57N 01°15' E 103°55'0 0.1
2017-Oct-07 18:24N 01°15' E 103°55'0 0.1
2017-Oct-07 17:57N 01°15' E 103°55'0 0.1
2017-Oct-07 17:28N 01°15' E 103°55'0 0.1
2017-Oct-07 16:54N 01°15' E 103°55'0 0.4
2017-Oct-07 16:28N 01°15' E 103°55'  

Dump ship's entire track history